createdAt,value
2022-12-03T00:00:46.633Z,139.77
2022-12-03T00:03:13.792Z,146.30
2022-12-03T00:05:48.367Z,131.53
2022-12-03T00:08:15.837Z,133.83
2022-12-03T00:10:42.820Z,138.03
2022-12-03T00:13:10.145Z,130.40
2022-12-03T00:15:37.173Z,143.27
2022-12-03T00:18:04.135Z,132.90
2022-12-03T00:20:31.020Z,117.30
2022-12-03T00:22:57.860Z,132.27
2022-12-03T00:25:24.859Z,132.40
2022-12-03T00:27:51.827Z,139.73
2022-12-03T00:30:19.021Z,132.37
2022-12-03T00:32:45.846Z,133.87
2022-12-03T00:35:12.721Z,145.20
2022-12-03T00:37:39.615Z,133.57
2022-12-03T00:40:07.147Z,133.47
2022-12-03T00:42:34.080Z,134.43
2022-12-03T00:45:01.047Z,142.17
2022-12-03T00:47:28.009Z,153.03
2022-12-03T00:49:54.980Z,141.77
2022-12-03T00:52:22.041Z,139.37
2022-12-03T00:54:49.042Z,143.30
2022-12-03T00:57:16.354Z,152.13
2022-12-03T00:59:43.391Z,148.40
2022-12-03T01:02:10.378Z,132.03
2022-12-03T01:04:37.589Z,141.50
2022-12-03T01:07:04.652Z,154.57
2022-12-03T01:09:31.845Z,152.70
2022-12-03T01:11:58.773Z,154.57
2022-12-03T01:14:25.784Z,161.07
2022-12-03T01:16:52.747Z,169.70
2022-12-03T01:19:21.148Z,142.90
2022-12-03T01:21:50.563Z,163.97
2022-12-03T01:24:18.896Z,154.93
2022-12-03T01:26:45.722Z,157.13
2022-12-03T01:29:12.810Z,162.03
2022-12-03T01:31:58.290Z,168.40
2022-12-03T01:34:25.163Z,187.53
2022-12-03T01:36:55.087Z,162.27
2022-12-03T01:39:22.040Z,167.43
2022-12-03T01:41:51.383Z,176.93
2022-12-03T01:44:31.425Z,170.43
2022-12-03T01:47:02.488Z,183.03
2022-12-03T01:49:35.844Z,152.80
2022-12-03T01:52:02.992Z,159.50
2022-12-03T01:54:38.965Z,173.53
2022-12-03T01:57:17.200Z,159.83
2022-12-03T01:59:44.780Z,171.90
2022-12-03T02:02:13.926Z,193.93
2022-12-03T02:04:41.147Z,182.43
2022-12-03T02:07:27.000Z,165.87
2022-12-03T02:09:56.508Z,165.97
2022-12-03T02:12:47.513Z,173.00
2022-12-03T02:15:14.736Z,159.73
2022-12-03T02:17:42.667Z,181.33
2022-12-03T02:20:11.304Z,161.80
2022-12-03T02:22:50.854Z,178.30
2022-12-03T02:25:25.004Z,166.93
2022-12-03T02:27:54.806Z,160.83
2022-12-03T02:30:23.955Z,177.50
2022-12-03T02:32:52.409Z,174.50
2022-12-03T02:35:27.573Z,178.37
2022-12-03T02:38:00.250Z,167.60
2022-12-03T02:40:32.398Z,192.87
2022-12-03T02:43:02.485Z,189.13
2022-12-03T02:45:34.210Z,180.33
2022-12-03T02:48:11.666Z,189.47
2022-12-03T02:50:42.488Z,206.67
2022-12-03T02:53:24.198Z,203.63
2022-12-03T02:55:53.107Z,195.93
2022-12-03T02:58:21.822Z,191.80
2022-12-03T03:00:50.024Z,224.40
2022-12-03T03:03:18.236Z,212.40
2022-12-03T03:05:45.607Z,222.07
2022-12-03T03:08:13.292Z,203.70
2022-12-03T03:10:41.822Z,287.57
2022-12-03T03:13:14.731Z,211.37
2022-12-03T03:15:42.389Z,212.03
2022-12-03T03:18:11.078Z,202.70
2022-12-03T03:20:38.694Z,195.00
2022-12-03T03:23:16.534Z,187.80
2022-12-03T03:25:58.728Z,187.13
2022-12-03T03:28:26.879Z,195.93
2022-12-03T03:30:54.224Z,235.27
2022-12-03T03:33:21.321Z,195.27
2022-12-03T03:35:49.818Z,211.87
2022-12-03T03:38:19.669Z,223.03
2022-12-03T03:40:48.330Z,209.53
2022-12-03T03:43:15.410Z,190.33
2022-12-03T03:45:43.073Z,181.33
2022-12-03T03:48:11.414Z,184.07
2022-12-03T03:50:38.704Z,193.73
2022-12-03T03:53:06.268Z,196.03
2022-12-03T03:55:33.778Z,189.97
2022-12-03T03:58:00.933Z,169.07
2022-12-03T04:00:28.142Z,188.33
2022-12-03T04:02:55.026Z,180.60
2022-12-03T04:05:24.004Z,185.00
2022-12-03T04:07:51.521Z,216.43
2022-12-03T04:10:36.898Z,231.03
2022-12-03T04:13:04.660Z,212.23
2022-12-03T04:15:31.556Z,200.73
2022-12-03T04:18:17.138Z,231.40
2022-12-03T04:20:44.129Z,233.83
2022-12-03T04:23:11.036Z,190.90
2022-12-03T04:25:56.475Z,201.47
2022-12-03T04:28:42.199Z,210.40
2022-12-03T04:31:27.719Z,173.73
2022-12-03T04:34:23.739Z,194.70
2022-12-03T04:36:51.009Z,210.57
2022-12-03T04:39:17.867Z,219.00
2022-12-03T04:41:44.812Z,258.23
2022-12-03T04:44:30.682Z,240.47
2022-12-03T04:46:57.634Z,193.77
2022-12-03T04:49:25.742Z,209.53
2022-12-03T04:51:52.706Z,227.87
2022-12-03T04:54:21.564Z,212.80
2022-12-03T04:56:48.448Z,232.17
2022-12-03T04:59:16.580Z,187.87
2022-12-03T05:01:44.649Z,172.60
2022-12-03T05:04:12.669Z,193.60
2022-12-03T05:06:40.033Z,182.77
2022-12-03T05:09:07.181Z,171.07
2022-12-03T05:11:34.185Z,130.00
2022-12-03T05:14:01.145Z,163.73
2022-12-03T05:16:29.161Z,162.07
2022-12-03T05:18:56.042Z,162.57
2022-12-03T05:21:23.047Z,157.07
2022-12-03T05:23:50.164Z,164.63
2022-12-03T05:26:17.141Z,156.77
2022-12-03T05:28:44.150Z,164.83
2022-12-03T05:31:11.255Z,133.63
2022-12-03T05:33:43.797Z,161.43
2022-12-03T05:36:11.625Z,154.00
2022-12-03T05:38:38.921Z,156.37
2022-12-03T05:41:26.164Z,151.70
2022-12-03T05:43:53.348Z,153.37
2022-12-03T05:46:20.307Z,155.80
2022-12-03T05:48:47.288Z,159.87
2022-12-03T05:51:14.257Z,166.37
2022-12-03T05:53:41.226Z,172.47
2022-12-03T05:56:08.174Z,165.43
2022-12-03T05:58:35.062Z,153.40
2022-12-03T06:01:01.973Z,145.83
2022-12-03T06:03:29.075Z,153.80
2022-12-03T06:05:56.147Z,151.97
2022-12-03T06:08:23.053Z,150.57
2022-12-03T06:10:50.036Z,165.33
2022-12-03T06:13:17.489Z,155.57
2022-12-03T06:15:44.918Z,169.13
2022-12-03T06:18:12.240Z,151.10
2022-12-03T06:20:39.289Z,136.20
2022-12-03T06:23:06.148Z,154.47
2022-12-03T06:25:33.050Z,150.40
2022-12-03T06:27:59.912Z,160.17
2022-12-03T06:30:26.879Z,167.17
2022-12-03T06:32:53.827Z,147.20
2022-12-03T06:35:20.752Z,164.33
2022-12-03T06:37:49.276Z,160.77
2022-12-03T06:40:16.900Z,183.43
2022-12-03T06:42:43.986Z,179.93
2022-12-03T06:45:11.833Z,156.67
2022-12-03T06:47:38.913Z,152.63
2022-12-03T06:50:07.136Z,187.60
2022-12-03T06:52:34.160Z,179.63
2022-12-03T06:55:01.284Z,169.47
2022-12-03T06:57:28.250Z,166.37
2022-12-03T06:59:55.320Z,187.10
2022-12-03T07:02:22.478Z,164.30
2022-12-03T07:04:49.295Z,180.53
2022-12-03T07:07:16.129Z,160.97
2022-12-03T07:09:43.201Z,175.10
2022-12-03T07:12:10.172Z,171.33
2022-12-03T07:14:37.914Z,170.60
2022-12-03T07:17:04.964Z,186.90
2022-12-03T07:19:32.937Z,186.17
2022-12-03T07:22:00.333Z,166.33
2022-12-03T07:24:27.801Z,181.67
2022-12-03T07:26:55.077Z,168.63
2022-12-03T07:29:22.215Z,177.80
2022-12-03T07:31:49.136Z,177.10
2022-12-03T07:34:16.203Z,166.50
2022-12-03T07:36:43.342Z,151.63
2022-12-03T07:39:10.201Z,153.50
2022-12-03T07:41:37.093Z,159.07
2022-12-03T07:44:06.598Z,161.53
2022-12-03T07:46:37.734Z,169.03
2022-12-03T07:49:04.738Z,163.50
2022-12-03T07:51:32.466Z,163.43
2022-12-03T07:53:59.487Z,157.83
2022-12-03T07:56:26.459Z,172.70
2022-12-03T07:58:53.293Z,174.70
2022-12-03T08:01:20.228Z,163.57
2022-12-03T08:03:47.114Z,171.47
2022-12-03T08:06:14.278Z,166.20
2022-12-03T08:08:41.145Z,163.73
2022-12-03T08:11:14.052Z,161.70
2022-12-03T08:13:40.977Z,145.37
2022-12-03T08:16:18.476Z,165.70
2022-12-03T08:18:47.097Z,158.17
2022-12-03T08:21:17.703Z,164.17
2022-12-03T08:23:44.913Z,152.50
2022-12-03T08:26:21.635Z,168.00
2022-12-03T08:28:48.547Z,157.73
2022-12-03T08:31:21.161Z,164.93
2022-12-03T08:33:51.142Z,162.43
2022-12-03T08:36:26.657Z,168.87
2022-12-03T08:39:02.097Z,179.53
2022-12-03T08:41:48.625Z,163.87
2022-12-03T08:44:15.596Z,162.87
2022-12-03T08:46:42.534Z,168.00
2022-12-03T08:49:09.841Z,167.67
2022-12-03T08:51:36.748Z,164.57
2022-12-03T08:54:14.942Z,164.03
2022-12-03T08:56:41.992Z,173.47
2022-12-03T08:59:30.978Z,167.73
2022-12-03T09:01:59.819Z,165.03
2022-12-03T09:04:31.449Z,160.57
2022-12-03T09:06:58.880Z,168.00
2022-12-03T09:09:26.405Z,166.23
2022-12-03T09:11:54.069Z,164.63
2022-12-03T09:14:22.654Z,169.60
2022-12-03T09:16:55.833Z,161.23
2022-12-03T09:19:27.760Z,164.10
2022-12-03T09:21:55.144Z,170.00
2022-12-03T09:24:22.153Z,174.03
2022-12-03T09:26:49.442Z,171.07
2022-12-03T09:29:16.364Z,176.97
2022-12-03T09:31:43.452Z,152.73
2022-12-03T09:34:11.039Z,177.10
2022-12-03T09:36:37.963Z,158.00
2022-12-03T09:39:05.186Z,167.00
2022-12-03T09:41:32.246Z,173.67
2022-12-03T09:44:08.584Z,172.53
2022-12-03T09:46:39.868Z,181.83
2022-12-03T09:49:15.589Z,164.60
2022-12-03T09:51:45.242Z,180.73
2022-12-03T09:54:21.139Z,172.17
2022-12-03T09:56:47.986Z,170.60
2022-12-03T09:59:16.202Z,170.67
2022-12-03T10:01:43.439Z,185.50
2022-12-03T10:04:10.713Z,163.83
2022-12-03T10:06:43.941Z,163.57
2022-12-03T10:09:14.681Z,181.80
2022-12-03T10:11:41.540Z,162.93
2022-12-03T10:14:13.157Z,165.30
2022-12-03T10:16:41.496Z,159.13
2022-12-03T10:19:18.175Z,163.17
2022-12-03T10:21:45.103Z,161.93
2022-12-03T10:24:17.992Z,162.80
2022-12-03T10:26:46.283Z,170.17
2022-12-03T10:29:14.948Z,177.97
2022-12-03T10:31:41.871Z,159.53
2022-12-03T10:34:10.067Z,167.73
2022-12-03T10:36:37.508Z,164.53
2022-12-03T10:39:07.427Z,163.93
2022-12-03T10:41:34.538Z,171.90
2022-12-03T10:44:19.641Z,173.70
2022-12-03T10:47:03.899Z,167.07
2022-12-03T10:49:30.979Z,172.47
2022-12-03T10:52:25.623Z,183.33
2022-12-03T10:54:53.465Z,185.07
2022-12-03T10:57:20.664Z,187.80
2022-12-03T10:59:47.672Z,180.27
2022-12-03T11:02:21.407Z,181.33
2022-12-03T11:04:48.567Z,185.60
2022-12-03T11:07:18.114Z,158.20
2022-12-03T11:09:48.158Z,183.07
2022-12-03T11:12:27.322Z,186.50
2022-12-03T11:14:54.950Z,183.20
2022-12-03T11:17:41.102Z,199.47
2022-12-03T11:20:31.034Z,188.27
2022-12-03T11:22:59.234Z,174.80
2022-12-03T11:25:26.593Z,173.50
2022-12-03T11:28:32.456Z,173.87
2022-12-03T11:31:03.596Z,173.23
2022-12-03T11:33:33.559Z,173.17
2022-12-03T11:41:33.879Z,162.07
2022-12-03T11:49:39.266Z,165.13
2022-12-03T12:00:27.769Z,191.63
2022-12-03T12:02:57.406Z,186.40
2022-12-03T12:05:29.752Z,219.53
2022-12-03T12:08:00.231Z,213.60
2022-12-03T12:10:41.152Z,200.93
2022-12-03T12:13:28.046Z,187.80
2022-12-03T12:16:02.662Z,185.57
2022-12-03T12:18:52.341Z,181.07
2022-12-03T12:21:43.705Z,197.23
2022-12-03T12:24:40.526Z,200.20
2022-12-03T12:27:16.651Z,215.57
2022-12-03T12:29:48.669Z,216.73
2022-12-03T12:32:17.890Z,203.93
2022-12-03T12:34:49.892Z,209.73
2022-12-03T12:37:36.042Z,213.80
2022-12-03T12:40:12.703Z,186.73
2022-12-03T12:42:50.318Z,195.30
2022-12-03T12:45:20.420Z,230.13
2022-12-03T12:48:07.962Z,210.53
2022-12-03T12:50:35.422Z,195.17
2022-12-03T12:53:20.284Z,206.00
2022-12-03T12:55:49.151Z,199.10
2022-12-03T12:58:19.559Z,200.40
2022-12-03T13:00:53.008Z,210.30
2022-12-03T13:03:23.553Z,228.50
2022-12-03T13:05:52.767Z,228.20
2022-12-03T13:08:32.948Z,211.47
2022-12-03T13:11:01.578Z,186.30
2022-12-03T13:13:43.323Z,208.17
2022-12-03T13:16:27.885Z,214.37
2022-12-03T13:18:57.135Z,214.70
2022-12-03T13:21:39.607Z,208.60
2022-12-03T13:24:34.586Z,222.37
2022-12-03T13:27:37.370Z,256.07
2022-12-03T13:30:16.233Z,240.00
2022-12-03T13:32:44.367Z,245.93
2022-12-03T13:35:24.154Z,273.83
2022-12-03T13:37:51.190Z,233.70
2022-12-03T13:40:35.055Z,244.63
2022-12-03T13:43:12.345Z,321.53
2022-12-03T13:45:41.099Z,302.57
2022-12-03T13:48:20.274Z,271.33
2022-12-03T13:50:47.184Z,271.43
2022-12-03T13:53:29.756Z,270.57
2022-12-03T13:56:31.460Z,303.90
2022-12-03T13:59:00.410Z,283.60
2022-12-03T14:01:28.636Z,290.57
2022-12-03T14:03:55.972Z,277.60
2022-12-03T14:06:22.862Z,283.63
2022-12-03T14:08:49.831Z,262.63
2022-12-03T14:11:46.043Z,256.67
2022-12-03T14:14:12.904Z,253.87
2022-12-03T14:16:40.172Z,261.37
2022-12-03T14:19:07.340Z,317.77
2022-12-03T14:21:34.305Z,300.20
2022-12-03T14:24:01.454Z,298.77
2022-12-03T14:26:28.465Z,305.27
2022-12-03T14:28:55.336Z,309.00
2022-12-03T14:31:22.300Z,286.30
2022-12-03T14:33:49.957Z,305.27
2022-12-03T14:36:17.221Z,269.73
2022-12-03T14:38:44.222Z,308.77
2022-12-03T14:41:31.219Z,278.47
2022-12-03T14:43:58.074Z,255.97
2022-12-03T14:46:25.108Z,309.87
2022-12-03T14:48:54.225Z,282.17
2022-12-03T14:51:21.686Z,297.10
2022-12-03T14:53:48.562Z,269.50
2022-12-03T14:56:15.366Z,267.47
2022-12-03T14:58:42.271Z,280.40
2022-12-03T15:01:09.301Z,282.13
2022-12-03T15:03:36.315Z,289.80
2022-12-03T15:06:03.263Z,282.03
2022-12-03T15:08:30.632Z,334.43
2022-12-03T15:10:57.729Z,301.70
2022-12-03T15:13:24.685Z,319.67
2022-12-03T15:15:51.720Z,323.40
2022-12-03T15:18:18.786Z,311.47
2022-12-03T15:20:45.885Z,328.73
2022-12-03T15:23:14.562Z,310.67
2022-12-03T15:25:41.907Z,313.73
2022-12-03T15:28:08.966Z,344.20
2022-12-03T15:30:35.992Z,448.60
2022-12-03T15:33:03.865Z,319.43
2022-12-03T15:35:31.176Z,339.67
2022-12-03T15:37:58.239Z,391.43
2022-12-03T15:40:29.491Z,317.27
2022-12-03T15:42:56.365Z,317.07
2022-12-03T15:45:23.364Z,383.97
2022-12-03T15:47:50.230Z,429.50
2022-12-03T15:50:17.454Z,392.47
2022-12-03T15:52:44.569Z,405.73
2022-12-03T15:55:11.825Z,411.63
2022-12-03T15:57:38.737Z,308.57
2022-12-03T16:00:07.240Z,344.07
2022-12-03T16:02:39.655Z,370.03
2022-12-03T16:05:09.809Z,423.93
2022-12-03T16:07:37.385Z,428.77
2022-12-03T16:10:06.657Z,291.80
2022-12-03T16:12:33.949Z,340.23
2022-12-03T16:15:00.820Z,464.17
2022-12-03T16:17:27.712Z,341.50
2022-12-03T16:19:54.823Z,315.03
2022-12-03T16:22:22.146Z,317.40
2022-12-03T16:24:49.100Z,360.07
2022-12-03T16:27:15.942Z,297.20
2022-12-03T16:29:42.799Z,296.43
2022-12-03T16:32:09.816Z,270.43
2022-12-03T16:34:36.654Z,285.00
2022-12-03T16:37:04.817Z,254.57
2022-12-03T16:39:35.010Z,328.87
2022-12-03T16:42:01.888Z,255.10
2022-12-03T16:44:33.482Z,275.17
2022-12-03T16:47:01.463Z,338.07
2022-12-03T16:49:28.726Z,295.23
2022-12-03T16:51:55.858Z,261.27
2022-12-03T16:54:22.780Z,322.63
2022-12-03T16:56:49.770Z,235.13
2022-12-03T16:59:16.813Z,218.17
2022-12-03T17:01:44.250Z,238.57
2022-12-03T17:04:11.773Z,228.17
2022-12-03T17:06:38.983Z,215.80
2022-12-03T17:09:05.894Z,212.10
2022-12-03T17:11:32.769Z,220.47
2022-12-03T17:13:59.762Z,220.97
2022-12-03T17:16:26.715Z,226.53
2022-12-03T17:18:53.652Z,270.60
2022-12-03T17:21:20.810Z,291.97
2022-12-03T17:23:51.021Z,298.60
2022-12-03T17:26:19.150Z,352.67
2022-12-03T17:28:46.147Z,454.33
2022-12-03T17:31:13.679Z,388.90
2022-12-03T17:33:40.667Z,449.50
2022-12-03T17:36:07.863Z,347.27
2022-12-03T17:38:39.103Z,406.40
2022-12-03T17:41:07.572Z,486.50
2022-12-03T17:43:34.564Z,384.87
2022-12-03T17:46:01.546Z,337.57
2022-12-03T17:48:31.153Z,408.03
2022-12-03T17:50:58.348Z,403.83
2022-12-03T17:53:25.370Z,545.17
2022-12-03T17:55:52.421Z,513.70
2022-12-03T17:58:19.626Z,536.30
2022-12-03T18:00:46.525Z,681.10
2022-12-03T18:03:13.441Z,568.40
2022-12-03T18:05:40.406Z,646.93
2022-12-03T18:08:07.506Z,531.67
2022-12-03T18:10:34.832Z,579.70
2022-12-03T18:13:02.578Z,548.20
2022-12-03T18:15:30.309Z,651.57
2022-12-03T18:17:57.332Z,532.97
2022-12-03T18:20:24.214Z,659.37
2022-12-03T18:22:51.371Z,534.20
2022-12-03T18:25:18.648Z,502.00
2022-12-03T18:27:46.448Z,509.53
2022-12-03T18:30:13.535Z,647.03
2022-12-03T18:32:40.400Z,527.50
2022-12-03T18:35:07.565Z,568.83
2022-12-03T18:37:34.766Z,489.03
2022-12-03T18:40:12.088Z,503.80
2022-12-03T18:42:39.988Z,500.97
2022-12-03T18:45:10.491Z,539.47
2022-12-03T18:47:37.553Z,450.40
2022-12-03T18:50:05.886Z,503.63
2022-12-03T18:52:32.925Z,502.30
2022-12-03T18:54:59.816Z,421.43
2022-12-03T18:57:27.144Z,406.03
2022-12-03T18:59:54.518Z,466.63
2022-12-03T19:05:09.414Z,374.10
2022-12-03T19:07:36.454Z,432.13
2022-12-03T19:10:04.013Z,415.80
2022-12-03T19:12:31.294Z,397.07
2022-12-03T19:14:58.204Z,331.73
2022-12-03T19:17:27.146Z,404.77
2022-12-03T19:19:54.773Z,464.40
2022-12-03T19:22:22.509Z,360.97
2022-12-03T19:24:49.529Z,362.00
2022-12-03T19:27:16.565Z,409.03
2022-12-03T19:29:43.553Z,428.50
2022-12-03T19:32:10.957Z,429.40
2022-12-03T19:34:38.218Z,353.47
2022-12-03T19:37:05.111Z,408.70
2022-12-03T19:39:33.255Z,482.53
2022-12-03T19:42:00.137Z,333.67
2022-12-03T19:44:27.039Z,510.20
2022-12-03T19:46:54.227Z,541.30
2022-12-03T19:49:21.505Z,480.77
2022-12-03T19:51:48.369Z,374.70
2022-12-03T19:54:16.302Z,477.73
2022-12-03T19:56:43.411Z,375.30
2022-12-03T19:59:14.269Z,362.13
2022-12-03T20:01:43.338Z,391.40
2022-12-03T20:04:12.511Z,386.03
2022-12-03T20:06:40.179Z,568.53
2022-12-03T20:09:11.563Z,361.47
2022-12-03T20:11:39.352Z,388.40
2022-12-03T20:14:09.160Z,372.10
2022-12-03T20:16:37.189Z,435.20
2022-12-03T20:19:06.950Z,409.33
2022-12-03T20:21:36.286Z,425.47
2022-12-03T20:24:04.967Z,397.77
2022-12-03T20:26:32.848Z,518.67
2022-12-03T20:29:00.514Z,709.30
2022-12-03T20:31:30.226Z,421.77
2022-12-03T20:34:00.049Z,359.37
2022-12-03T20:36:29.674Z,397.40
2022-12-03T20:38:58.242Z,507.60
2022-12-03T20:41:25.604Z,711.23
2022-12-03T20:43:54.083Z,470.43
2022-12-03T20:46:27.353Z,417.67
2022-12-03T20:48:55.295Z,577.53
2022-12-03T20:51:25.032Z,349.87
2022-12-03T20:53:52.506Z,552.53
2022-12-03T20:56:31.644Z,501.57
2022-12-03T20:59:07.999Z,537.77
2022-12-03T21:01:36.254Z,477.50
2022-12-03T21:04:04.840Z,390.90
2022-12-03T21:06:34.170Z,382.97
2022-12-03T21:09:01.950Z,352.63
2022-12-03T21:11:31.330Z,368.37
2022-12-03T21:13:59.253Z,447.73
2022-12-03T21:16:52.512Z,385.20
2022-12-03T21:19:18.422Z,357.23
2022-12-03T21:21:45.465Z,539.00
2022-12-03T21:24:13.588Z,462.93
2022-12-03T21:26:41.393Z,451.73
2022-12-03T21:29:08.772Z,415.80
2022-12-03T21:31:37.409Z,477.50
2022-12-03T21:34:05.176Z,459.40
2022-12-03T21:36:32.564Z,417.23
2022-12-03T21:38:59.868Z,533.00
2022-12-03T21:41:27.124Z,390.83
2022-12-03T21:43:54.136Z,401.80
2022-12-03T21:47:12.406Z,471.03
2022-12-03T21:49:08.040Z,395.30
2022-12-03T21:51:35.323Z,454.43
2022-12-03T21:54:02.300Z,378.50
2022-12-03T21:56:31.838Z,506.27
2022-12-03T21:58:58.882Z,465.03
2022-12-03T22:01:26.183Z,419.23
2022-12-03T22:03:53.190Z,379.80
2022-12-03T22:06:20.980Z,485.87
2022-12-03T22:08:48.288Z,358.53
2022-12-03T22:11:20.964Z,524.50
2022-12-03T22:13:47.874Z,490.33
2022-12-03T22:16:20.512Z,457.97
2022-12-03T22:18:48.232Z,417.80
2022-12-03T22:21:20.627Z,548.93
2022-12-03T22:23:47.866Z,620.27
2022-12-03T22:26:17.050Z,578.60
2022-12-03T22:28:45.088Z,614.33
2022-12-03T22:31:12.470Z,576.30
2022-12-03T22:33:40.103Z,538.27
2022-12-03T22:36:20.960Z,593.63
2022-12-03T22:38:49.946Z,562.93
2022-12-03T22:41:17.397Z,431.73
2022-12-03T22:43:45.424Z,496.37
2022-12-03T22:46:13.164Z,473.27
2022-12-03T22:48:42.150Z,447.60
2022-12-03T22:51:14.435Z,502.07
2022-12-03T22:53:41.344Z,466.03
2022-12-03T22:56:08.659Z,557.80
2022-12-03T22:58:38.284Z,431.13
2022-12-03T23:01:06.071Z,394.67
2022-12-03T23:03:33.091Z,427.93
2022-12-03T23:06:00.099Z,426.13
2022-12-03T23:08:26.950Z,411.47
2022-12-03T23:10:53.910Z,393.37
2022-12-03T23:13:21.162Z,446.00
2022-12-03T23:15:50.997Z,391.70
2022-12-03T23:18:19.155Z,364.27
2022-12-03T23:20:51.709Z,371.10
2022-12-03T23:23:20.180Z,393.90
2022-12-03T23:26:01.024Z,366.60
2022-12-03T23:28:29.496Z,410.43
2022-12-03T23:30:56.678Z,329.93
2022-12-03T23:33:24.421Z,384.40
2022-12-03T23:35:51.535Z,385.00
2022-12-03T23:38:18.638Z,340.93
2022-12-03T23:40:48.220Z,324.00
2022-12-03T23:43:16.248Z,364.17
2022-12-03T23:45:43.122Z,318.07
2022-12-03T23:48:10.159Z,349.33
2022-12-03T23:50:39.655Z,303.27
2022-12-03T23:53:06.576Z,276.83
2022-12-03T23:55:33.816Z,367.20
2022-12-03T23:58:00.647Z,292.57
